Time;durP1;ratioP1;P1;durP2;ratioP2;P2;SDS_P1;SDS_P2;PMS_P1;PMS_P2;Temp;Humidity;BMP_temperature;BMP_pressure;BME280_temperature;BME280_humidity;BME280_pressure;Samples;Min_cycle;Max_cycle;Signal;HPM_P1;HPM_P2
2024/01/23 00:01:11;;;;;;;20.02;4.30;;;4.20;99.90;;;;;;5116269;27;20039;-67
2024/01/23 00:03:37;;;;;;;17.73;3.90;;;4.30;99.90;;;;;;5118899;27;20047;-67
2024/01/23 00:06:03;;;;;;;20.52;3.97;;;4.30;99.90;;;;;;5113104;28;20038;-67
2024/01/23 00:08:29;;;;;;;17.63;3.20;;;4.30;99.90;;;;;;5115056;27;20074;-67
2024/01/23 00:10:55;;;;;;;23.02;3.45;;;4.30;99.90;;;;;;5114542;28;20532;-67
2024/01/23 00:13:21;;;;;;;14.23;3.13;;;4.30;99.90;;;;;;5108026;28;20467;-67
2024/01/23 00:15:46;;;;;;;17.67;4.20;;;4.20;99.90;;;;;;5118696;28;20150;-67
2024/01/23 00:18:12;;;;;;;24.38;3.70;;;4.20;99.90;;;;;;5112720;28;20411;-67
2024/01/23 00:20:37;;;;;;;25.48;3.50;;;4.20;99.90;;;;;;5101410;28;20043;-67
2024/01/23 00:23:03;;;;;;;17.75;3.35;;;4.10;99.90;;;;;;5108416;28;20030;-67
2024/01/23 00:25:28;;;;;;;23.35;4.05;;;4.10;99.90;;;;;;5103784;28;20101;-67
2024/01/23 00:27:54;;;;;;;23.90;5.20;;;4.10;99.90;;;;;;5100177;28;20039;-67
2024/01/23 00:30:20;;;;;;;13.75;3.20;;;4.10;99.90;;;;;;5102007;27;20047;-67
2024/01/23 00:32:45;;;;;;;15.32;3.60;;;4.20;99.90;;;;;;5101436;28;20039;-66
2024/01/23 00:35:11;;;;;;;28.77;3.72;;;4.20;99.90;;;;;;5105461;28;20426;-67
2024/01/23 00:37:37;;;;;;;23.98;3.15;;;4.20;99.90;;;;;;5096932;28;20032;-67
2024/01/23 00:40:03;;;;;;;25.10;3.17;;;4.30;99.90;;;;;;5086828;28;20086;-67
2024/01/23 00:42:29;;;;;;;18.13;3.35;;;4.30;99.90;;;;;;5103248;28;20046;-67
2024/01/23 00:44:54;;;;;;;21.23;4.32;;;4.30;99.90;;;;;;5101693;28;20028;-68
2024/01/23 00:47:20;;;;;;;30.63;4.20;;;4.30;99.90;;;;;;5104621;28;20047;-67
2024/01/23 00:49:46;;;;;;;20.20;3.10;;;4.40;99.90;;;;;;5076464;22;20049;-69
2024/01/23 00:52:12;;;;;;;24.92;3.28;;;4.40;99.90;;;;;;5064762;28;20487;-70
2024/01/23 00:54:38;;;;;;;19.83;3.40;;;4.40;99.90;;;;;;5063430;28;20028;-68
2024/01/23 00:57:06;;;;;;;17.08;2.88;;;4.30;99.90;;;;;;5066265;28;20173;-67
2024/01/23 00:59:33;;;;;;;9.73;2.45;;;4.30;99.90;;;;;;5045973;28;20032;-69
2024/01/23 01:01:59;;;;;;;15.60;2.80;;;4.30;99.90;;;;;;5065095;28;20422;-68
2024/01/23 01:04:24;;;;;;;16.20;2.80;;;4.30;99.90;;;;;;5066077;28;20037;-68
2024/01/23 01:06:50;;;;;;;21.25;3.38;;;4.20;99.90;;;;;;5064736;28;20718;-68
2024/01/23 01:09:15;;;;;;;17.33;3.13;;;4.20;99.90;;;;;;5062877;28;20123;-68
2024/01/23 01:11:41;;;;;;;16.42;2.85;;;4.20;99.90;;;;;;5061412;28;20040;-68
2024/01/23 01:14:07;;;;;;;24.10;3.80;;;4.20;99.90;;;;;;5061024;28;20119;-67
2024/01/23 01:16:32;;;;;;;25.83;4.03;;;4.20;99.90;;;;;;5063719;28;20051;-69
2024/01/23 01:18:58;;;;;;;13.32;2.60;;;4.10;99.90;;;;;;5060846;28;20107;-67
2024/01/23 01:21:24;;;;;;;9.63;2.50;;;4.10;99.90;;;;;;5063620;28;20092;-68
2024/01/23 01:23:50;;;;;;;14.27;1.75;;;4.10;99.90;;;;;;5036374;28;20436;-68
2024/01/23 01:26:16;;;;;;;8.52;1.77;;;4.10;99.90;;;;;;5044826;28;20055;-68
2024/01/23 01:28:41;;;;;;;10.48;2.05;;;4.10;99.90;;;;;;5062328;28;20040;-69
2024/01/23 01:31:07;;;;;;;9.57;1.70;;;4.00;99.90;;;;;;5063723;28;20063;-67
2024/01/23 01:33:32;;;;;;;12.93;2.28;;;4.00;99.90;;;;;;5059768;28;20123;-67
2024/01/23 01:35:58;;;;;;;15.93;2.35;;;4.10;99.90;;;;;;5061048;28;20041;-68
2024/01/23 01:38:24;;;;;;;10.93;1.85;;;4.00;99.90;;;;;;5063896;28;20040;-67
2024/01/23 01:40:49;;;;;;;14.02;2.83;;;3.90;99.90;;;;;;5063074;28;20038;-68
2024/01/23 01:43:25;;;;;;;19.85;2.78;;;3.90;99.90;;;;;;5064715;28;20048;-68
2024/01/23 01:46:00;;;;;;;16.08;3.63;;;3.80;99.90;;;;;;5027374;28;20033;-67
2024/01/23 01:48:26;;;;;;;14.35;2.53;;;3.70;99.90;;;;;;5035927;28;20102;-68
2024/01/23 01:50:51;;;;;;;20.33;2.72;;;3.70;99.90;;;;;;5048001;28;20118;-68
2024/01/23 01:53:17;;;;;;;15.88;2.42;;;3.70;99.90;;;;;;5042526;28;20504;-69
2024/01/23 01:55:43;;;;;;;12.85;3.03;;;3.60;99.90;;;;;;5040860;28;20044;-67
2024/01/23 01:58:11;;;;;;;15.77;3.72;;;3.60;99.90;;;;;;5042023;28;20033;-67
2024/01/23 02:00:36;;;;;;;21.48;3.60;;;3.60;99.90;;;;;;5044916;28;20045;-69
2024/01/23 02:03:03;;;;;;;14.25;3.95;;;3.60;99.90;;;;;;5047318;28;20036;-67
2024/01/23 02:05:29;;;;;;;21.95;3.60;;;3.60;99.90;;;;;;5045024;28;20045;-68
2024/01/23 02:07:54;;;;;;;13.27;3.42;;;3.70;99.90;;;;;;5047803;28;20037;-68
2024/01/23 02:10:20;;;;;;;21.50;4.53;;;3.70;99.90;;;;;;5039914;28;20040;-68
2024/01/23 02:12:45;;;;;;;18.42;4.05;;;3.80;99.90;;;;;;5048196;28;20036;-68
2024/01/23 02:15:11;;;;;;;26.27;4.40;;;3.80;99.90;;;;;;5041897;28;20029;-69
2024/01/23 02:17:38;;;;;;;21.33;4.40;;;3.80;99.90;;;;;;5030306;28;20535;-69
2024/01/23 02:20:05;;;;;;;26.63;4.38;;;3.90;99.90;;;;;;5041760;28;20650;-68
2024/01/23 02:22:31;;;;;;;27.42;5.63;;;3.90;99.90;;;;;;5046950;28;20047;-69
2024/01/23 02:24:56;;;;;;;25.13;5.57;;;3.90;99.90;;;;;;5036913;28;20334;-68
2024/01/23 02:27:22;;;;;;;27.27;5.40;;;3.90;99.90;;;;;;5048369;28;20069;-68
2024/01/23 02:29:47;;;;;;;22.40;5.10;;;3.90;99.90;;;;;;5042708;28;20039;-69
2024/01/23 02:32:13;;;;;;;28.30;4.85;;;4.00;99.90;;;;;;5047558;28;20029;-69
2024/01/23 02:34:38;;;;;;;21.73;4.53;;;3.90;99.90;;;;;;5043422;28;20039;-68
2024/01/23 02:37:04;;;;;;;24.27;5.25;;;4.00;99.90;;;;;;5041470;28;20076;-68
2024/01/23 02:39:29;;;;;;;24.98;4.97;;;4.00;99.90;;;;;;5038548;28;20127;-68
2024/01/23 02:41:55;;;;;;;21.83;4.63;;;4.00;99.90;;;;;;5028083;28;20040;-68
2024/01/23 02:44:20;;;;;;;19.40;4.70;;;3.90;99.90;;;;;;5033698;28;20123;-69
2024/01/23 02:46:46;;;;;;;27.40;5.55;;;4.00;99.90;;;;;;5045703;28;20148;-69
2024/01/23 02:49:12;;;;;;;22.02;4.90;;;4.00;99.90;;;;;;5040806;28;20116;-70
2024/01/23 02:51:37;;;;;;;28.25;4.90;;;4.00;99.90;;;;;;5041686;28;20067;-69
2024/01/23 02:54:03;;;;;;;33.13;5.07;;;4.00;99.90;;;;;;5018562;28;20037;-70
2024/01/23 02:56:29;;;;;;;24.10;4.78;;;4.10;99.90;;;;;;5030161;28;20110;-68
2024/01/23 02:58:54;;;;;;;30.63;5.30;;;4.00;99.90;;;;;;5041552;28;20033;-69
2024/01/23 03:01:20;;;;;;;28.10;4.85;;;4.10;99.90;;;;;;5041062;28;20045;-69
2024/01/23 03:03:46;;;;;;;22.52;4.57;;;4.10;99.90;;;;;;5018121;28;20052;-69
2024/01/23 03:06:11;;;;;;;22.13;4.68;;;4.00;99.90;;;;;;5040415;28;20073;-69
2024/01/23 03:08:37;;;;;;;16.73;4.05;;;3.90;99.90;;;;;;5044246;28;20055;-69
2024/01/23 03:11:03;;;;;;;19.10;3.83;;;3.80;99.90;;;;;;5021230;28;20044;-70
2024/01/23 03:13:28;;;;;;;26.92;5.22;;;3.70;99.90;;;;;;5046379;28;20045;-69
2024/01/23 03:15:54;;;;;;;23.63;4.70;;;3.70;99.90;;;;;;5040144;28;20102;-69
2024/01/23 03:18:20;;;;;;;22.73;5.15;;;3.70;99.90;;;;;;5028270;28;21720;-68
2024/01/23 03:20:46;;;;;;;22.80;4.85;;;3.70;99.90;;;;;;5043507;28;20416;-69
2024/01/23 03:23:11;;;;;;;26.50;5.07;;;3.70;99.90;;;;;;5030468;28;20597;-68
2024/01/23 03:25:37;;;;;;;20.85;4.75;;;3.80;99.90;;;;;;5043358;28;20048;-69
2024/01/23 03:28:03;;;;;;;23.08;4.15;;;3.80;99.90;;;;;;5046789;28;20036;-69
2024/01/23 03:30:32;;;;;;;19.60;4.22;;;3.70;99.90;;;;;;5037483;28;20052;-69
2024/01/23 03:32:58;;;;;;;19.88;4.43;;;3.70;99.90;;;;;;5048582;28;20048;-69
2024/01/23 03:35:24;;;;;;;20.02;4.55;;;3.70;99.90;;;;;;5038553;28;20111;-69
2024/01/23 03:37:51;;;;;;;18.65;4.53;;;3.70;99.90;;;;;;5046915;28;20500;-69
2024/01/23 03:40:17;;;;;;;18.15;4.38;;;3.70;99.90;;;;;;5036158;28;20068;-69
2024/01/23 03:42:42;;;;;;;26.25;4.55;;;3.70;99.90;;;;;;5046444;28;20727;-68
2024/01/23 03:45:08;;;;;;;20.73;4.35;;;3.70;99.90;;;;;;5038097;28;20044;-68
2024/01/23 03:47:35;;;;;;;24.63;5.85;;;3.70;99.90;;;;;;5045062;28;20057;-69
2024/01/23 03:50:01;;;;;;;22.33;4.40;;;3.70;99.90;;;;;;5040429;28;20124;-69
2024/01/23 03:52:26;;;;;;;12.05;3.85;;;3.60;99.90;;;;;;5037381;28;20136;-69
2024/01/23 03:54:52;;;;;;;16.95;3.10;;;3.60;99.90;;;;;;5038188;28;20041;-69
2024/01/23 03:57:18;;;;;;;17.77;3.50;;;3.40;99.90;;;;;;5041325;28;20238;-69
2024/01/23 03:59:45;;;;;;;14.70;3.22;;;3.20;99.90;;;;;;5047105;28;20212;-68
2024/01/23 04:02:10;;;;;;;22.35;3.78;;;3.10;99.90;;;;;;5047513;28;20044;-68
2024/01/23 04:04:36;;;;;;;17.30;3.60;;;3.10;99.90;;;;;;5041905;28;20534;-67
2024/01/23 04:07:02;;;;;;;22.98;4.28;;;3.00;99.90;;;;;;5047763;28;20040;-67
2024/01/23 04:09:28;;;;;;;21.88;4.82;;;3.00;99.90;;;;;;5041243;28;20528;-67
2024/01/23 04:11:54;;;;;;;19.88;4.90;;;3.00;99.90;;;;;;5048094;28;20048;-67
2024/01/23 04:14:20;;;;;;;25.52;4.95;;;3.10;99.90;;;;;;5042002;28;20029;-68
2024/01/23 04:16:46;;;;;;;24.38;4.75;;;3.10;99.90;;;;;;5048342;28;20587;-67
2024/01/23 04:19:12;;;;;;;26.92;5.18;;;3.10;99.90;;;;;;5039492;28;20056;-67
2024/01/23 04:21:38;;;;;;;29.40;6.72;;;3.20;99.90;;;;;;5047176;28;20033;-68
2024/01/23 04:24:04;;;;;;;22.55;4.93;;;3.20;99.90;;;;;;5040935;28;20567;-67
2024/01/23 04:26:29;;;;;;;27.83;5.28;;;3.20;99.90;;;;;;5048270;28;20326;-67
2024/01/23 04:28:55;;;;;;;23.05;5.38;;;3.30;99.90;;;;;;5046656;28;20041;-68
2024/01/23 04:31:21;;;;;;;20.00;4.53;;;3.30;99.90;;;;;;5038920;28;20067;-67
2024/01/23 04:33:47;;;;;;;20.73;4.47;;;3.30;99.90;;;;;;5040073;28;20279;-68
2024/01/23 04:36:13;;;;;;;26.25;6.78;;;3.30;99.90;;;;;;5045734;28;20068;-68
2024/01/23 04:38:39;;;;;;;15.57;4.68;;;3.30;99.90;;;;;;5035254;28;20048;-68
2024/01/23 04:41:04;;;;;;;21.90;4.55;;;3.30;99.90;;;;;;5042744;28;20401;-68
2024/01/23 04:43:30;;;;;;;28.17;5.28;;;3.30;99.90;;;;;;5039783;28;20074;-69
2024/01/23 04:45:56;;;;;;;26.80;4.80;;;3.30;99.90;;;;;;5059593;28;20037;-67
2024/01/23 04:48:21;;;;;;;25.45;6.00;;;3.30;99.90;;;;;;5042261;28;20515;-68
2024/01/23 04:50:47;;;;;;;24.33;4.35;;;3.30;99.90;;;;;;5050400;28;20652;-67
2024/01/23 04:53:13;;;;;;;24.60;5.03;;;3.30;99.90;;;;;;5059244;28;20036;-66
2024/01/23 04:55:38;;;;;;;23.63;4.13;;;3.40;99.90;;;;;;5051297;28;20040;-68
2024/01/23 04:58:04;;;;;;;26.33;4.93;;;3.40;99.90;;;;;;5045541;28;20040;-68
2024/01/23 05:00:30;;;;;;;25.92;4.85;;;3.40;99.90;;;;;;5046617;28;20532;-71
2024/01/23 05:02:55;;;;;;;23.45;4.72;;;3.40;99.90;;;;;;5047927;28;20067;-68
2024/01/23 05:05:21;;;;;;;24.85;4.07;;;3.40;99.90;;;;;;5042294;28;20124;-67
2024/01/23 05:07:47;;;;;;;27.52;4.90;;;3.40;99.90;;;;;;5047572;28;20574;-69
2024/01/23 05:10:12;;;;;;;28.60;4.57;;;3.40;99.90;;;;;;5046588;28;20082;-67
2024/01/23 05:12:38;;;;;;;24.90;4.82;;;3.40;99.90;;;;;;5047171;28;20075;-67
2024/01/23 05:15:04;;;;;;;24.08;4.97;;;3.40;99.90;;;;;;5041487;28;20037;-68
2024/01/23 05:17:33;;;;;;;24.52;5.15;;;3.40;99.90;;;;;;5042991;28;20036;-68
2024/01/23 05:19:59;;;;;;;24.27;4.28;;;3.40;99.90;;;;;;5045390;28;20040;-69
2024/01/23 05:22:25;;;;;;;25.58;4.28;;;3.40;99.90;;;;;;5031419;28;20032;-67
2024/01/23 05:24:50;;;;;;;23.52;4.45;;;3.40;99.90;;;;;;5045464;28;20037;-68
2024/01/23 05:27:16;;;;;;;17.52;3.72;;;3.50;99.90;;;;;;5039993;28;20168;-68
2024/01/23 05:29:41;;;;;;;16.02;3.30;;;3.50;99.90;;;;;;5039737;28;20045;-68
2024/01/23 05:32:07;;;;;;;24.27;4.13;;;3.50;99.90;;;;;;5038368;28;20033;-69
2024/01/23 05:34:34;;;;;;;26.52;3.45;;;3.50;99.90;;;;;;5042276;28;20140;-68
2024/01/23 05:36:59;;;;;;;20.27;4.10;;;3.50;99.90;;;;;;5042908;28;20513;-68
2024/01/23 05:39:26;;;;;;;24.88;3.28;;;3.50;99.90;;;;;;5040662;28;20116;-68
2024/01/23 05:41:52;;;;;;;23.38;4.07;;;3.50;99.90;;;;;;5042467;28;20496;-68
2024/01/23 05:44:18;;;;;;;21.48;4.20;;;3.50;99.90;;;;;;5040889;28;20048;-68
2024/01/23 05:46:44;;;;;;;28.52;4.03;;;3.50;99.90;;;;;;5051678;28;20799;-68
2024/01/23 05:49:09;;;;;;;34.83;4.72;;;3.50;99.90;;;;;;5045649;28;20222;-68
2024/01/23 05:51:35;;;;;;;28.40;5.65;;;3.60;99.90;;;;;;5045494;28;20668;-70
2024/01/23 05:54:00;;;;;;;22.17;3.90;;;3.50;99.90;;;;;;5030342;28;20037;-69
2024/01/23 05:56:26;;;;;;;18.58;3.45;;;3.50;99.90;;;;;;5048638;28;20040;-68
2024/01/23 05:58:51;;;;;;;19.40;3.60;;;3.50;99.90;;;;;;5040742;28;20075;-68
2024/01/23 06:01:17;;;;;;;28.05;3.88;;;3.50;99.90;;;;;;5039196;28;20064;-68
2024/01/23 06:03:42;;;;;;;26.08;4.43;;;3.50;99.90;;;;;;5049343;28;20073;-70
2024/01/23 06:06:08;;;;;;;31.17;4.15;;;3.50;99.90;;;;;;5039242;28;20033;-69
2024/01/23 06:08:33;;;;;;;21.42;3.65;;;3.50;99.90;;;;;;5039409;28;20068;-68
2024/01/23 06:10:59;;;;;;;24.83;3.60;;;3.50;99.90;;;;;;5045195;28;20037;-68
2024/01/23 06:13:24;;;;;;;20.00;3.78;;;3.50;99.90;;;;;;5046896;28;20045;-68
2024/01/23 06:15:50;;;;;;;18.58;3.10;;;3.50;99.90;;;;;;5034604;28;20397;-68
2024/01/23 06:18:16;;;;;;;20.55;3.10;;;3.60;99.90;;;;;;5043826;28;20044;-68
2024/01/23 06:20:43;;;;;;;17.65;3.50;;;3.50;99.90;;;;;;5045989;28;20044;-68
2024/01/23 06:23:08;;;;;;;20.70;3.63;;;3.50;99.90;;;;;;5039114;28;20041;-67
2024/01/23 06:25:34;;;;;;;18.42;3.58;;;3.50;99.90;;;;;;5039817;28;20410;-68
2024/01/23 06:28:00;;;;;;;33.90;4.88;;;3.50;99.90;;;;;;5050563;28;20128;-68
2024/01/23 06:30:25;;;;;;;26.42;4.57;;;3.50;99.90;;;;;;5045489;28;20087;-68
2024/01/23 06:32:51;;;;;;;21.92;3.33;;;3.50;99.90;;;;;;5050410;28;20045;-68
2024/01/23 06:35:16;;;;;;;22.73;3.53;;;3.50;99.90;;;;;;5038590;28;20041;-69
2024/01/23 06:37:42;;;;;;;27.10;4.35;;;3.40;99.90;;;;;;5047227;28;20048;-68
2024/01/23 06:40:08;;;;;;;25.90;4.30;;;3.50;99.90;;;;;;5043355;28;20037;-69
2024/01/23 06:42:35;;;;;;;20.70;3.88;;;3.50;99.90;;;;;;5038807;28;20084;-69
2024/01/23 06:45:00;;;;;;;22.30;3.95;;;3.50;99.90;;;;;;5042572;28;20066;-70
2024/01/23 06:47:26;;;;;;;22.63;3.50;;;3.50;99.90;;;;;;5046603;28;20044;-68
2024/01/23 06:49:52;;;;;;;19.70;3.67;;;3.50;99.90;;;;;;5040025;28;20523;-68
2024/01/23 06:52:17;;;;;;;19.75;3.63;;;3.40;99.90;;;;;;5039547;28;20052;-67
2024/01/23 06:54:43;;;;;;;23.75;4.60;;;3.40;99.90;;;;;;5021824;28;20041;-69
2024/01/23 06:57:08;;;;;;;19.20;3.70;;;3.50;99.90;;;;;;5051097;28;20040;-68
2024/01/23 06:59:34;;;;;;;19.60;4.40;;;3.50;99.90;;;;;;5040326;28;20045;-68
2024/01/23 07:02:00;;;;;;;20.77;4.40;;;3.50;99.90;;;;;;5043319;28;20047;-68
2024/01/23 07:04:25;;;;;;;32.08;4.13;;;3.50;99.90;;;;;;5038002;28;20041;-68
2024/01/23 07:06:51;;;;;;;18.90;3.42;;;3.50;99.90;;;;;;5046908;28;20036;-68
2024/01/23 07:09:16;;;;;;;28.60;4.03;;;3.50;99.90;;;;;;5039329;28;20034;-69
2024/01/23 07:11:42;;;;;;;29.55;6.47;;;3.50;99.90;;;;;;5047480;28;20516;-68
2024/01/23 07:14:08;;;;;;;21.05;4.85;;;3.50;99.90;;;;;;5038885;28;20119;-68
2024/01/23 07:16:34;;;;;;;25.88;4.03;;;3.50;99.90;;;;;;5047947;28;20056;-68
2024/01/23 07:19:00;;;;;;;22.63;4.35;;;3.60;99.90;;;;;;5035388;28;20488;-68
2024/01/23 07:21:26;;;;;;;25.40;4.35;;;3.60;99.90;;;;;;5046823;28;20093;-68
2024/01/23 07:23:51;;;;;;;26.02;4.97;;;3.60;99.90;;;;;;5037927;28;20037;-69
2024/01/23 07:26:20;;;;;;;25.20;5.40;;;3.60;99.90;;;;;;5041443;28;20073;-70
2024/01/23 07:28:46;;;;;;;29.70;5.00;;;3.60;99.90;;;;;;5054966;28;20051;-68
2024/01/23 07:31:12;;;;;;;33.50;4.93;;;3.60;99.90;;;;;;5044377;28;20485;-70
2024/01/23 07:33:38;;;;;;;24.85;4.43;;;3.60;99.90;;;;;;5056907;23;20080;-69
2024/01/23 07:36:04;;;;;;;26.45;5.30;;;3.60;99.90;;;;;;5047087;28;20040;-68
2024/01/23 07:38:30;;;;;;;23.27;4.45;;;3.60;99.90;;;;;;5045497;28;20079;-69
2024/01/23 07:40:56;;;;;;;29.60;6.45;;;3.60;99.90;;;;;;5051735;28;20826;-69
2024/01/23 07:43:25;;;;;;;64.80;19.40;;;3.60;99.90;;;;;;5045704;28;20049;-69
2024/01/23 07:45:54;;;;;;;24.60;5.55;;;3.70;99.90;;;;;;5047855;28;20045;-69
2024/01/23 07:48:20;;;;;;;39.42;12.25;;;3.70;99.90;;;;;;5051472;28;20052;-70
2024/01/23 07:50:46;;;;;;;30.33;6.70;;;3.70;99.90;;;;;;5058087;28;20045;-70
2024/01/23 07:53:11;;;;;;;29.60;5.32;;;3.70;99.90;;;;;;5053198;28;20044;-71
2024/01/23 07:55:37;;;;;;;32.60;7.63;;;3.70;99.90;;;;;;5057903;28;20041;-69
2024/01/23 07:58:03;;;;;;;31.38;5.75;;;3.70;99.90;;;;;;5047150;28;20045;-70
2024/01/23 08:00:29;;;;;;;32.60;5.60;;;3.70;99.90;;;;;;5041026;28;20049;-72
2024/01/23 08:02:55;;;;;;;29.52;4.72;;;3.70;99.90;;;;;;4125181;28;10000899;-70
2024/01/23 08:05:20;;;;;;;25.63;5.75;;;3.70;99.90;;;;;;5028395;28;20056;-70
2024/01/23 08:07:48;;;;;;;35.47;5.47;;;3.70;99.90;;;;;;5039119;28;20049;-70
2024/01/23 08:10:14;;;;;;;23.38;5.25;;;3.80;99.90;;;;;;5035459;28;20069;-71
2024/01/23 08:12:40;;;;;;;26.42;5.40;;;3.80;99.90;;;;;;5036486;28;20103;-69
2024/01/23 08:15:06;;;;;;;26.15;5.72;;;3.90;99.90;;;;;;5034380;28;20066;-69
2024/01/23 08:17:32;;;;;;;30.40;5.05;;;3.80;99.90;;;;;;5030620;28;20045;-71
2024/01/23 08:19:57;;;;;;;26.08;4.50;;;3.80;99.90;;;;;;5028316;28;20047;-70
2024/01/23 08:22:23;;;;;;;24.27;5.38;;;3.80;99.90;;;;;;5040682;28;20069;-69
2024/01/23 08:24:48;;;;;;;30.48;5.30;;;3.80;99.90;;;;;;5034923;28;20124;-69
2024/01/23 08:27:14;;;;;;;29.80;4.97;;;3.90;99.90;;;;;;5042768;28;20033;-71
2024/01/23 08:29:40;;;;;;;24.75;5.40;;;3.90;99.90;;;;;;5033995;28;20032;-71
2024/01/23 08:32:05;;;;;;;36.10;5.55;;;3.90;99.90;;;;;;5036115;28;20037;-70
2024/01/23 08:34:31;;;;;;;36.85;5.80;;;3.90;99.90;;;;;;5038164;28;20335;-70
2024/01/23 08:36:57;;;;;;;26.90;5.00;;;3.90;99.90;;;;;;5044693;28;20049;-70
2024/01/23 08:39:22;;;;;;;34.90;6.13;;;3.90;99.90;;;;;;5035208;28;20044;-69
2024/01/23 08:41:48;;;;;;;27.88;6.50;;;3.90;99.90;;;;;;5041537;28;20041;-69
2024/01/23 08:44:14;;;;;;;27.85;4.70;;;3.90;99.90;;;;;;5036927;28;20060;-70
2024/01/23 08:46:40;;;;;;;28.08;5.15;;;3.90;99.90;;;;;;5042124;28;20132;-71
2024/01/23 08:49:20;;;;;;;35.22;5.50;;;4.00;99.90;;;;;;5029922;28;20086;-69
2024/01/23 08:51:46;;;;;;;31.77;6.13;;;4.00;99.90;;;;;;5043910;28;20502;-68
2024/01/23 08:54:13;;;;;;;38.78;5.93;;;4.00;99.90;;;;;;5037118;28;20127;-68
2024/01/23 08:56:39;;;;;;;30.90;5.70;;;4.00;99.90;;;;;;5035192;28;20075;-69
2024/01/23 08:59:04;;;;;;;37.88;6.85;;;4.00;99.90;;;;;;5032444;28;20069;-69
2024/01/23 09:01:30;;;;;;;28.83;5.70;;;4.00;99.90;;;;;;5030479;28;20713;-71
2024/01/23 09:03:56;;;;;;;25.60;6.38;;;4.00;99.90;;;;;;5038465;28;20037;-70
2024/01/23 09:06:21;;;;;;;26.63;5.13;;;4.00;99.90;;;;;;5047679;28;20053;-69
2024/01/23 09:08:47;;;;;;;27.55;4.93;;;4.00;99.90;;;;;;5034161;28;20030;-69
2024/01/23 09:11:13;;;;;;;34.67;4.88;;;4.00;99.90;;;;;;5041522;28;20366;-69
2024/01/23 09:13:38;;;;;;;24.25;4.95;;;4.00;99.90;;;;;;5038731;28;20037;-69
2024/01/23 09:16:04;;;;;;;32.15;5.30;;;4.00;99.90;;;;;;5033160;28;20133;-68
2024/01/23 09:18:30;;;;;;;27.83;5.18;;;4.00;99.90;;;;;;5033410;28;20041;-68
2024/01/23 09:20:56;;;;;;;36.63;8.77;;;4.00;99.90;;;;;;5040043;28;20045;-69
2024/01/23 09:23:24;;;;;;;31.85;5.70;;;4.00;99.90;;;;;;5042856;28;20063;-69
2024/01/23 09:25:51;;;;;;;35.78;5.93;;;4.00;99.90;;;;;;5034668;28;20048;-71
2024/01/23 09:28:16;;;;;;;31.35;5.22;;;4.00;99.90;;;;;;5030149;28;20350;-67
2024/01/23 09:30:43;;;;;;;28.30;5.15;;;4.10;99.90;;;;;;5033004;28;20515;-70
2024/01/23 09:33:08;;;;;;;24.80;5.03;;;4.00;99.90;;;;;;5036170;28;20389;-68
2024/01/23 09:35:35;;;;;;;23.08;5.15;;;4.00;99.90;;;;;;5032861;28;20097;-69
2024/01/23 09:38:01;;;;;;;25.10;4.63;;;4.00;99.90;;;;;;5028640;28;20099;-69
2024/01/23 09:40:26;;;;;;;26.60;4.35;;;4.10;99.90;;;;;;5021202;28;20087;-68
2024/01/23 09:42:55;;;;;;;35.10;5.15;;;4.10;99.90;;;;;;5019279;28;20069;-68
2024/01/23 09:45:26;;;;;;;20.05;4.32;;;4.10;99.90;;;;;;5031391;28;20067;-68
2024/01/23 09:47:52;;;;;;;30.50;4.55;;;4.10;99.90;;;;;;5026721;28;20053;-68
2024/01/23 09:50:18;;;;;;;30.90;5.78;;;4.10;99.90;;;;;;5029052;28;20037;-69
2024/01/23 09:52:45;;;;;;;25.23;5.45;;;4.10;99.90;;;;;;5040943;28;20070;-70
2024/01/23 09:55:14;;;;;;;29.80;5.15;;;4.10;99.90;;;;;;5033871;28;20044;-70
2024/01/23 09:57:40;;;;;;;33.13;4.95;;;4.10;99.90;;;;;;5036013;28;20183;-69
2024/01/23 10:00:07;;;;;;;32.50;4.80;;;4.10;99.90;;;;;;5030177;28;20041;-70
2024/01/23 10:02:34;;;;;;;26.33;5.00;;;4.20;99.90;;;;;;5040758;28;20045;-70
2024/01/23 10:05:01;;;;;;;21.70;4.63;;;4.20;99.90;;;;;;5028365;28;20044;-70
2024/01/23 10:07:26;;;;;;;25.05;4.85;;;4.20;99.90;;;;;;5039473;28;20044;-71
2024/01/23 10:10:04;;;;;;;31.52;5.57;;;4.30;99.90;;;;;;5033388;28;20066;-70
2024/01/23 10:12:32;;;;;;;13.82;3.75;;;4.30;99.90;;;;;;5018404;28;20442;-68
2024/01/23 10:14:59;;;;;;;19.77;4.05;;;4.30;99.90;;;;;;5010040;28;20712;-69
2024/01/23 10:17:25;;;;;;;32.40;5.43;;;4.30;99.90;;;;;;5026595;28;20102;-70
2024/01/23 10:19:51;;;;;;;27.30;5.22;;;4.30;99.90;;;;;;5020700;28;20034;-69
2024/01/23 10:22:18;;;;;;;29.45;5.55;;;4.20;99.90;;;;;;5022069;28;20052;-70
2024/01/23 10:24:43;;;;;;;24.33;4.57;;;4.30;99.90;;;;;;5026387;28;20600;-72
2024/01/23 10:27:09;;;;;;;19.55;4.55;;;4.30;99.90;;;;;;5038375;28;20120;-69
2024/01/23 10:29:35;;;;;;;26.10;4.93;;;4.40;99.90;;;;;;5028515;28;20044;-70
2024/01/23 10:32:02;;;;;;;25.42;4.88;;;4.40;99.90;;;;;;5029832;28;20116;-70
2024/01/23 10:34:28;;;;;;;28.52;4.45;;;4.30;99.90;;;;;;5028179;28;20071;-70
2024/01/23 10:36:57;;;;;;;26.52;4.82;;;4.30;99.90;;;;;;5038206;28;20523;-70
2024/01/23 10:39:25;;;;;;;30.80;6.63;;;4.30;99.90;;;;;;5028155;28;20044;-69
2024/01/23 10:41:52;;;;;;;33.92;5.45;;;4.20;99.90;;;;;;5038799;28;20044;-69
2024/01/23 10:44:21;;;;;;;37.72;6.20;;;4.20;99.90;;;;;;5031777;28;20045;-69
2024/01/23 10:46:48;;;;;;;34.75;5.60;;;4.20;99.90;;;;;;5037172;28;20053;-69
2024/01/23 10:49:15;;;;;;;26.27;5.07;;;4.20;99.90;;;;;;5029221;28;20049;-69
2024/01/23 10:51:47;;;;;;;27.65;4.53;;;4.20;99.90;;;;;;5036403;28;20053;-71
2024/01/23 10:54:26;;;;;;;33.67;5.68;;;4.30;99.90;;;;;;5028179;28;20033;-70
2024/01/23 10:56:55;;;;;;;35.97;6.25;;;4.30;99.90;;;;;;5027948;28;20049;-69
2024/01/23 10:59:26;;;;;;;29.92;5.20;;;4.30;99.90;;;;;;5029881;28;20033;-69
2024/01/23 11:02:01;;;;;;;23.85;4.03;;;4.30;99.90;;;;;;5031403;28;20082;-72
2024/01/23 11:04:27;;;;;;;23.08;4.13;;;4.30;99.90;;;;;;5032382;28;20041;-69
2024/01/23 11:06:59;;;;;;;27.20;4.72;;;4.20;99.90;;;;;;5039354;28;20673;-69
2024/01/23 11:09:52;;;;;;;26.38;4.90;;;4.20;99.90;;;;;;5022820;28;20103;-70
2024/01/23 11:12:53;;;;;;;27.05;5.03;;;4.30;99.90;;;;;;5032424;28;20037;-71
2024/01/23 11:15:19;;;;;;;23.05;4.40;;;4.30;99.90;;;;;;5022149;28;20132;-71
2024/01/23 11:17:45;;;;;;;37.97;6.88;;;4.30;99.90;;;;;;5042889;28;20159;-70
2024/01/23 11:20:14;;;;;;;30.85;5.53;;;4.40;99.90;;;;;;5018586;28;20124;-70
2024/01/23 11:22:40;;;;;;;32.25;5.43;;;4.40;99.90;;;;;;5028591;28;20048;-71
2024/01/23 11:25:08;;;;;;;41.05;6.20;;;4.40;99.90;;;;;;5024579;28;20046;-71
2024/01/23 11:27:39;;;;;;;30.45;4.97;;;4.40;99.90;;;;;;5038323;28;20514;-69
2024/01/23 11:30:10;;;;;;;30.65;4.30;;;4.40;99.90;;;;;;5037854;28;20033;-71
2024/01/23 11:32:36;;;;;;;34.20;6.22;;;4.40;99.90;;;;;;5042138;28;20052;-70
2024/01/23 11:35:11;;;;;;;36.95;6.95;;;4.50;99.90;;;;;;5032561;28;20393;-70
2024/01/23 11:37:55;;;;;;;28.88;4.30;;;4.50;99.90;;;;;;5037532;28;20131;-71
2024/01/23 11:40:27;;;;;;;31.05;5.88;;;4.50;99.90;;;;;;5030336;28;20047;-69
2024/01/23 11:42:54;;;;;;;23.42;4.78;;;4.50;99.90;;;;;;5028365;28;20034;-70
2024/01/23 11:45:40;;;;;;;29.48;5.35;;;4.60;99.90;;;;;;5032757;28;20045;-70
2024/01/23 11:48:08;;;;;;;27.33;5.73;;;4.70;99.90;;;;;;5039102;28;20160;-72
2024/01/23 11:50:36;;;;;;;30.52;5.60;;;4.70;99.90;;;;;;5028144;28;20376;-69
2024/01/23 11:53:02;;;;;;;33.67;5.90;;;4.70;99.90;;;;;;5031684;28;20051;-69
2024/01/23 11:55:28;;;;;;;32.53;5.78;;;4.70;99.90;;;;;;5039302;28;20139;-70
2024/01/23 11:57:57;;;;;;;25.27;5.57;;;4.70;99.90;;;;;;5014578;28;20204;-70
2024/01/23 12:00:23;;;;;;;28.27;6.13;;;4.80;99.90;;;;;;5031589;28;20049;-69
2024/01/23 12:02:49;;;;;;;28.77;6.75;;;4.80;99.90;;;;;;5032025;28;20045;-69
2024/01/23 12:05:16;;;;;;;28.92;6.28;;;4.80;99.90;;;;;;5018796;28;20397;-71
2024/01/23 12:07:42;;;;;;;32.75;6.55;;;4.80;99.90;;;;;;5024556;28;20045;-70
2024/01/23 12:10:10;;;;;;;28.85;7.88;;;4.80;99.90;;;;;;5017131;28;20119;-70
2024/01/23 12:12:37;;;;;;;24.73;7.05;;;4.80;99.90;;;;;;5030773;28;20045;-69
2024/01/23 12:15:04;;;;;;;30.85;7.15;;;4.90;99.90;;;;;;5034791;28;20045;-70
2024/01/23 12:17:35;;;;;;;31.15;6.63;;;5.00;99.90;;;;;;5035298;28;20543;-70
2024/01/23 12:20:07;;;;;;;40.35;8.23;;;5.00;99.90;;;;;;5024744;28;20041;-69
2024/01/23 12:22:36;;;;;;;32.25;7.03;;;5.00;99.90;;;;;;5038945;28;20037;-68
2024/01/23 12:25:03;;;;;;;29.92;6.47;;;5.00;99.90;;;;;;5032953;28;20036;-70
2024/01/23 12:27:32;;;;;;;28.17;6.20;;;5.00;99.90;;;;;;5033829;28;20037;-69
2024/01/23 12:29:59;;;;;;;27.98;7.20;;;5.00;99.90;;;;;;5028409;28;20147;-69
2024/01/23 12:32:29;;;;;;;31.10;5.90;;;5.00;99.90;;;;;;5025340;28;20045;-67
2024/01/23 12:34:55;;;;;;;19.23;6.22;;;5.10;99.90;;;;;;5034064;28;20148;-69
2024/01/23 12:37:26;;;;;;;30.15;6.65;;;5.10;99.90;;;;;;5024491;28;20067;-70
2024/01/23 12:39:53;;;;;;;22.58;5.38;;;5.00;99.90;;;;;;5029951;28;20159;-68
2024/01/23 12:42:18;;;;;;;24.40;5.60;;;5.00;99.90;;;;;;5039625;28;20037;-71
2024/01/23 12:44:44;;;;;;;23.23;5.78;;;4.90;99.90;;;;;;5023572;28;20119;-69